Thiago Cardozo

Olheiro - River Plate
20 Fev 2028
Domingo
Processo

Personalidade

Adaptabilidade (5) Ambição (3) Controvérsia (9) Lealdade (11) Pressão (15) Profissionalismo (12) Espírito Esportivo (20) Temperamento (6)

Perfil

Estilo de Treinamento Democrático
Licença Continental C
Determinação 6
Gestão de Pessoas 11
Motivação 12
Disciplina 6
Satisfação no Trabalho
80%
Fadiga
0%
Função Olheiro
Salário 11.5K p/s
Contrato 14.03.2030

Desempenho

Comportamento Bom
Eficácia do Treinamento
35%
Desenvolvimento do Jogador
35%
Prevenção de Lesões
40%
Implementação Tática
50%

Eventos Recentes

Avaliou um jogador 7d atrás
Participou de uma reunião de recrutamento 7d atrás
Participou de uma reunião de recrutamento 14d atrás
Participou de uma reunião de recrutamento 21d atrás
Participou de uma reunião de recrutamento 28d atrás
Participando de desenvolvimento profissional 28d atrás
Participando de desenvolvimento profissional 28d atrás
Participando de desenvolvimento profissional 28d atrás

Monitorando agora

161
Jogador Clube Status Habilidade Confiança Observado Última observação Último voto
İsak Vural Gubbio Ativo 105 / 128 40% 1 08.02.2028 -
Sipho Ngqakabana Zenit Penza Ativo 85 / 83 40% 1 08.02.2028 -
Exequiel Oviedo Cherno More Ativo 102 / 91 40% 1 07.02.2028 -
Ollie Bostock Crewe Alexandra Ativo 109 / 104 40% 1 07.02.2028 -
Lucas Medina Atenas Ativo 108 / 101 51% 1 20.12.2027 -
Luciano Inverso Rentistas Ativo 103 / 112 51% 1 07.12.2027 -
Ronan Kpakio Cardiff City Ativo 136 / 127 40% 2 30.11.2027 -
Bautista Reinhardt Hrvatski Dragovoljac Ativo 102 / 96 40% 1 30.11.2027 -
Facundo Rodríguez Talleres Ativo 84 / 92 40% 2 08.11.2027 -
Andrés Calderón Deportivo Pereira Ativo 81 / 92 40% 1 08.11.2027 -
Adama Goïta Remo Stars Ativo 91 / 100 40% 2 06.11.2027 -
Dylan Cabral Arsenal Ativo 97 / 106 40% 1 06.11.2027 -
Matías Gómez Zira Ativo 105 / 106 40% 1 05.11.2027 -
Matías Acevedo Racing Club Ativo 103 / 120 40% 1 05.11.2027 -
Marvelous Freedom Ikorodu City Ativo 92 / 97 40% 2 04.11.2027 -
Chineme Chinonso Ikorodu City Ativo 92 / 99 40% 2 02.11.2027 -
Jayden Danns Wigan Athletic Ativo 152 / 133 40% 1 02.11.2027 -
Facundo Martínez Montevideo City Torque Ativo 85 / 95 40% 3 01.11.2027 -
Nahuel Olmedo Real Cartagena Ativo 81 / 90 40% 1 01.11.2027 -
Fillip Jenssen Riise Stabaek Ativo 84 / 105 40% 1 23.10.2027 -
Ángel Aguayo Sol de America Ativo 103 / 98 40% 1 23.10.2027 -
Baylee Dipepa Norwich City Ativo 114 / 124 40% 1 22.10.2027 -
Juan Rodríguez Wanderers Ativo 105 / 103 40% 2 21.10.2027 -
Alexandr Voronovich Shukura Ativo 79 / 83 40% 1 20.10.2027 -
Nazareno Roselli Defensa y Justicia Ativo 115 / 120 40% 1 20.10.2027 -
Amaury Morales Pumas UNAM Ativo 113 / 127 40% 1 19.10.2027 -
Kevin Angulo America de Cali Ativo 96 / 112 40% 1 11.10.2027 -
Maren Kefas Plateau United Ativo 93 / 99 40% 1 08.10.2027 -
Dilan Godoy Vélez Ativo 118 / 112 40% 1 06.10.2027 -
Nicolás Azambuja Cádiz Ativo 104 / 125 40% 1 05.10.2027 -
Rodrigo Fernández Alvarado Ativo 75 / 93 40% 1 14.09.2027 -
Gabriel Sánchez Rosario Central Ativo 87 / 103 40% 1 14.09.2027 -
Hosea Michael Remo Stars Ativo 99 / 89 40% 1 10.09.2027 -
Junior Machis Atletico Venezuela Ativo 78 / 83 40% 1 10.09.2027 -
Zahir Ibarra Defensa y Justicia Ativo 97 / 110 40% 1 09.09.2027 -
Godwin Oham Warri Wolves Ativo 91 / 92 40% 1 09.09.2027 -
Felipe Karabulut Gimnasia y Tiro Ativo 83 / 96 40% 1 07.09.2027 -
Diego Robles Union Espanola Ativo 90 / 91 40% 1 07.09.2027 -
Matías Gómez Granada Ativo 113 / 132 40% 1 06.09.2027 -
Alejandro Almaraz Nueva Chicago Ativo 103 / 120 40% 1 06.09.2027 -
Santiago Pereira Cerrito Ativo 84 / 95 51% 1 19.07.2027 -
Alessio Zerbin Frosinone Ativo 151 / 129 40% 1 31.05.2027 -
Joseph Hungbo Wigan Athletic Ativo 127 / 108 40% 2 30.05.2027 -
Ethan Williams Peterborough United Ativo 120 / 122 40% 1 30.05.2027 -
David Turnbull Cardiff City Ativo 128 / 124 40% 1 29.05.2027 -
Morgan Whittaker Middlesbrough Ativo 131 / 129 40% 2 25.05.2027 -
Isaiah Jones Luton Town Ativo 128 / 121 40% 1 24.05.2027 -
Xavier Amaechi Plymouth Argyle Ativo 121 / 102 40% 2 18.05.2027 -
Tommy Conway Middlesbrough Ativo 116 / 131 40% 1 18.05.2027 -
Scott Twine Bristol City Ativo 144 / 122 40% 1 12.05.2027 -
Ilias Akhomach Villarreal Ativo 127 / 146 40% 1 08.05.2027 -
Tyler Goodrham Oxford United Ativo 134 / 119 40% 1 08.05.2027 -
Ollie Tanner Cardiff City Ativo 114 / 122 40% 4 07.05.2027 -
Jack Rudoni Coventry City Ativo 126 / 125 40% 2 07.05.2027 -
Johan Manzambi Newcastle United Ativo 148 / 146 40% 1 07.05.2027 -
Freddy Murillo Valencia Ativo 118 / 115 40% 1 07.05.2027 -
Tomáš Rigo Stoke City Ativo 116 / 133 40% 2 03.05.2027 -
Chari Giwa US Bougouba Ativo 73 / 80 40% 1 03.05.2027 -
Zeidane Inoussa Swansea City Ativo 130 / 115 40% 1 29.04.2027 -
Daniel Kyerewaa Reading Ativo 101 / 116 40% 1 22.04.2027 -
Million Manhoef Stoke City Ativo 140 / 134 40% 1 22.04.2027 -
Tom Fellows Southampton Ativo 137 / 131 40% 3 21.04.2027 -
Toby Collyer West Bromwich Albion Ativo 146 / 134 40% 1 21.04.2027 -
Alex Lowry Wycombe Wanderers Ativo 111 / 111 40% 1 19.04.2027 -
Juan Giménez Celta Ativo 131 / 122 40% 1 17.04.2027 -
Samuel Lucero Defensa y Justicia Ativo 110 / 125 40% 2 15.04.2027 -
Martim Cunha Porto Ativo 93 / 108 40% 1 15.04.2027 -
Zaïd BafdilI Sporting CP Ativo 103 / 99 40% 2 14.04.2027 -
Dylan Lawlor Cardiff City Ativo 119 / 114 40% 1 14.04.2027 -
Riley Owen Trento Ativo 100 / 103 40% 1 13.04.2027 -
Macaulley Kuma Heart of Lions Ativo 60 / 77 40% 1 09.04.2027 -
Kazunari Kita Real Sociedad Ativo 109 / 108 40% 2 08.04.2027 -
Kasey McAteer Ipswich Town Ativo 123 / 124 40% 1 08.04.2027 -
Christos Mouzakitis Hull City Ativo 142 / 128 40% 1 08.04.2027 -
Cian Ashford Cardiff City Ativo 106 / 122 40% 1 05.04.2027 -
Ilyas Ansah Hull City Ativo 126 / 134 40% 2 03.04.2027 -
Phoenix Patterson Stevenage Ativo 101 / 102 40% 1 03.04.2027 -
Jon Eceizabarrena Real Sociedad Ativo 110 / 98 40% 2 24.03.2027 -
Mathias Jørgensen Blackburn Rovers Ativo 119 / 110 40% 1 18.03.2027 -
Shea Charles Southampton Ativo 144 / 144 40% 1 18.03.2027 -
Finn Azaz Southampton Ativo 114 / 130 40% 1 14.03.2027 -
Carlos Vicente Birmingham Ativo 153 / 149 40% 3 09.03.2027 -
Dávid Strelec Middlesbrough Ativo 126 / 144 40% 1 09.03.2027 -
Jofre Torrents Ajax Ativo 127 / 120 40% 1 03.03.2027 -
Mpho Khethang AS Police Ativo 90 / 87 40% 1 03.03.2027 -
Darlin Yongwa Norwich City Ativo 130 / 118 40% 1 28.02.2027 -
Filippo Ranocchia Palermo Ativo 121 / 135 40% 1 23.02.2027 -
Mamadou Sangaré Brentford Ativo 161 / 132 40% 1 23.02.2027 -
Jack McGlynn Stoke City Ativo 139 / 128 40% 1 22.02.2027 -
Derry Murkin Derby County Ativo 123 / 121 40% 1 21.02.2027 -
Giorgi Chakvetadze Watford Ativo 112 / 129 40% 1 20.02.2027 -
Kellen Fisher Norwich City Ativo 107 / 128 40% 1 18.02.2027 -
Ethan Galbraith Swansea City Ativo 119 / 130 40% 2 17.02.2027 -
Víctor Villasanti Lokomotiv Plovdiv Ativo 101 / 89 40% 1 17.02.2027 -
Kelland Watts Cambridge United Ativo 115 / 92 40% 1 16.02.2027 -
Kane Wilson Milton Keynes Dons Ativo 106 / 121 40% 1 16.02.2027 -
Teden Mengi Luton Town Ativo 140 / 130 40% 1 11.02.2027 -
Eom Ji-Sung Swansea City Ativo 107 / 118 40% 1 09.02.2027 -
Lewis Gibson Preston Ativo 118 / 125 40% 1 04.02.2027 -
Aarón Molinas Defensa y Justicia Ativo 115 / 132 40% 3 30.01.2027 -
Brian De Keersmaecker Oxford United Ativo 139 / 133 40% 1 30.01.2027 -
Pelle Mattsson Norwich City Ativo 126 / 122 40% 1 25.01.2027 -
Álex Centelles Levski Ativo 113 / 120 40% 1 25.01.2027 -
Kevin Halabaku Hibernians Ativo 109 / 92 40% 1 24.01.2027 -
Benjamín García Hearts of Oak Ativo 91 / 90 40% 1 20.01.2027 -
Brodie Spencer Oxford United Ativo 131 / 127 40% 1 16.01.2027 -
Andrés Dieppa Metalurh Zaporizhzhia Ativo 95 / 94 40% 2 15.01.2027 -
Melker Widell Swansea City Ativo 102 / 120 40% 1 15.01.2027 -
Petar Stanić Ludogorets Ativo 122 / 140 40% 1 08.01.2027 -
Zak Swanson Bradford City Ativo 98 / 122 40% 1 08.01.2027 -
Siro Rosané Estudiantes Ativo 123 / 117 40% 2 06.01.2027 -
Andre Brooks Sheffield United Ativo 113 / 120 40% 1 06.01.2027 -
Alan Lescano Argentinos Juniors Ativo 126 / 133 40% 1 05.01.2027 -
Nathan Moriah-Welsh Mansfield Town Ativo 105 / 122 40% 1 04.01.2027 -
Keagan Tau Ajax Cape Town Ativo 72 / 111 40% 1 03.12.2026 -
Tomás O'Connor Gimnasia y Esgrima Ativo 121 / 124 40% 2 27.11.2026 -
Santiago Moyano Central Córdoba SdE Ativo 116 / 123 40% 1 27.11.2026 -
Vicente Poggi Godoy Cruz Ativo 124 / 131 40% 1 26.11.2026 -
Eduardo Armenta Ufa Ativo 111 / 99 40% 1 26.11.2026 -
Rodrigo Mosqueda Doxa Ativo 112 / 88 40% 1 25.11.2026 -
Víctor Ríos Atlas Ativo 107 / 108 40% 1 24.11.2026 -
Jonás Luna Santa Clara Ativo 109 / 113 40% 1 24.11.2026 -
Franco Zapiola Platense Ativo 122 / 124 40% 1 22.11.2026 -
Axel Batista Quilmes Ativo 105 / 117 40% 2 21.11.2026 -
Oscar Garrido Mitre Ativo 110 / 116 40% 1 18.11.2026 -
Joaquín Gho Argentinos Juniors Ativo 117 / 127 40% 1 16.11.2026 -
Juergen Elitím Bohemians 1905 Ativo 104 / 108 40% 1 16.11.2026 -
Tomás Porra Barracas Central Ativo 118 / 121 40% 1 13.11.2026 -
Marcelo Allende Mamelodi Sundowns Ativo 145 / 134 40% 1 13.11.2026 Mais informações
Nicolás Laméndola Atlético Tucumán Ativo 128 / 120 40% 2 12.11.2026 -
Juan Velázquez Belgrano Ativo 127 / 121 40% 1 12.11.2026 -
Sebastián Medina Tigre Ativo 128 / 116 40% 3 09.11.2026 -
Alexander Díaz Deportivo Riestra Ativo 106 / 123 40% 2 07.11.2026 -
Santiago González Tigre Ativo 120 / 123 40% 3 02.11.2026 -
Stefano Moreyra Independiente Rivadavia Ativo 128 / 121 40% 1 01.11.2026 -
Valentín Depietri Talleres Ativo 112 / 128 40% 1 30.10.2026 -
Brahian Cuello Unión de Santa Fe Ativo 105 / 111 40% 1 30.10.2026 -
Manuel Duarte Barracas Central Ativo 112 / 122 40% 1 28.10.2026 -
Santiago López García Banfield Ativo 119 / 112 40% 1 26.10.2026 -
Mariano Bracamonte Deportivo Riestra Ativo 130 / 124 40% 1 25.10.2026 -
Pedro Ramírez Deportivo Riestra Ativo 108 / 121 40% 1 20.10.2026 -
Matías Fernández Independiente Rivadavia Ativo 124 / 119 40% 1 20.10.2026 -
Tobías Leiva Estudiantes Ativo 125 / 112 40% 1 18.10.2026 -
Alan Forneris Racing Club Ativo 122 / 126 40% 1 17.10.2026 -
Felipe Obradovich Ferro Carril Oeste Ativo 102 / 119 40% 1 17.10.2026 -
Gastón Benedetti Estudiantes Ativo 111 / 131 40% 1 14.10.2026 -
Iván Tapia Barracas Central Ativo 114 / 114 40% 1 11.10.2026 -
Adrián Sánchez Belgrano Ativo 111 / 116 40% 2 10.10.2026 -
Ariel Schuartzman Torpedo Kutaisi Ativo 89 / 109 40% 1 10.10.2026 -
Brian Farioli Estudiantes Ativo 120 / 119 40% 1 09.10.2026 -
Matías Machado Racing Ativo 109 / 112 40% 1 09.10.2026 -
Ulises Sánchez Gimnasia y Esgrima Ativo 129 / 120 40% 1 07.10.2026 -
Ignacio Rodríguez Racing Club Ativo 130 / 123 40% 1 07.10.2026 -
Ramón González Almirante Brown Ativo 99 / 107 40% 1 06.10.2026 -
Bayron Duarte Queretaro Ativo 106 / 121 40% 1 10.09.2026 -
Mateo Zuleta Once Caldas Ativo 113 / 126 40% 1 10.09.2026 -
Eduardo Dos Santos Veracruz Ativo 127 / 117 40% 1 08.09.2026 -
Pedro Vite Pumas UNAM Ativo 122 / 121 40% 1 07.09.2026 -
Emerson Batalla Atletico Bucaramanga Ativo 135 / 118 40% 1 07.09.2026 -
Justo Giani Universidad Catolica Ativo 117 / 128 40% 1 05.08.2026 -
Germán Valera Elche Ativo 148 / 142 40% 1 02.08.2026 -